Main page
METAR-TAF:

METAR-TAF

Airports :

Sabadell, Spain

Sabadell Airport

latitude: 41-31N, longitude: 002-06E, elevation: 250 m

Current weather observation

The report was made 20 minutes ago, at 16:30 UTC
Wind 8 kt from the South, varying between Southeast and South/Southwest
Temperature 30°C
Humidity 55%
Pressure 1014 hPa
Visibility 10 km or more
Few clouds at a height of 3500 ft

METAR: LELL 221630Z 17008KT 140V200 9999 FEW035 30/20 Q1014

Time: 18:50 (16:50 UTC)

Forecast

The report was made 2 hours and 50 minutes ago, at 14:00 UTC
Forecast valid from 22 at 15 UTC to 23 at 15 UTC
Wind 10 kt from the East/Southeast
Visibility 10 km or more
Scattered clouds at a height of 2000 ft
Becoming
from 22 at 18 UTC to 22 at 20 UTC
Wind 3 kt from variable directions
Becoming
from 23 at 09 UTC to 23 at 11 UTC
Wind 10 kt from the Southeast

TAF: LELL 221400Z 2215/2315 12010KT 9999 SCT020 TX30/2313Z TN19/2305Z BECMG 2218/2220 VRB03KT BECMG 2309/2311 13010KT

Weather observations and forecasts of more than 4000 airports (METAR and TAF reports).

The available stations are represented by yellow and red dots on the map.

Hover mouse over dot to see the name of the station.

Then click to see weather observations and forecasts.

To change the map : click on the green buttons with a black cross to zoom in, on the green button with a dash to zoom out, or on the green arrows for adjacent maps.


METAR-TAF: